sensor_id;sensor_type;location;lat;lon;timestamp;pressure;altitude;pressure_sealevel;temperature;humidity
16100;BME280;8154;50.830;12.082;2023-03-23T00:51:41;98529.41;;;24.02;33.68
16100;BME280;8154;50.830;12.082;2023-03-23T00:54:07;98527.19;;;23.99;33.57
16100;BME280;8154;50.830;12.082;2023-03-23T00:56:34;98526.16;;;24.00;33.76
16100;BME280;8154;50.830;12.082;2023-03-23T00:59:02;98526.78;;;23.95;33.74
16100;BME280;8154;50.830;12.082;2023-03-23T01:01:29;98528.63;;;23.95;33.67
16100;BME280;8154;50.830;12.082;2023-03-23T01:03:58;98526.97;;;24.00;33.54
16100;BME280;8154;50.830;12.082;2023-03-23T01:06:30;98530.81;;;24.04;33.45
16100;BME280;8154;50.830;12.082;2023-03-23T01:09:07;98536.75;;;24.06;33.66
16100;BME280;8154;50.830;12.082;2023-03-23T01:11:34;98530.38;;;24.07;33.67
16100;BME280;8154;50.830;12.082;2023-03-23T01:14:03;98531.69;;;23.98;33.70
16100;BME280;8154;50.830;12.082;2023-03-23T01:16:36;98529.25;;;23.97;33.66
16100;BME280;8154;50.830;12.082;2023-03-23T01:19:11;98530.22;;;24.02;33.44
16100;BME280;8154;50.830;12.082;2023-03-23T01:21:46;98523.03;;;24.03;33.44
16100;BME280;8154;50.830;12.082;2023-03-23T01:24:13;98528.38;;;24.03;33.41
16100;BME280;8154;50.830;12.082;2023-03-23T01:26:39;98523.84;;;24.03;33.39
16100;BME280;8154;50.830;12.082;2023-03-23T01:29:06;98536.97;;;24.05;33.50
16100;BME280;8154;50.830;12.082;2023-03-23T01:31:33;98528.97;;;24.05;33.68
16100;BME280;8154;50.830;12.082;2023-03-23T01:34:05;98531.66;;;24.05;33.30
16100;BME280;8154;50.830;12.082;2023-03-23T01:36:33;98530.59;;;24.06;33.29
16100;BME280;8154;50.830;12.082;2023-03-23T01:39:04;98515.91;;;23.97;33.57
16100;BME280;8154;50.830;12.082;2023-03-23T01:41:36;98513.84;;;23.99;33.71
16100;BME280;8154;50.830;12.082;2023-03-23T01:46:45;98503.69;;;24.07;33.58
16100;BME280;8154;50.830;12.082;2023-03-23T01:49:16;98509.84;;;24.08;33.39
16100;BME280;8154;50.830;12.082;2023-03-23T03:51:16;98414.66;;;24.02;33.33
16100;BME280;8154;50.830;12.082;2023-03-23T03:53:42;98405.97;;;24.06;33.12
16100;BME280;8154;50.830;12.082;2023-03-23T03:56:08;98401.44;;;24.07;33.20
16100;BME280;8154;50.830;12.082;2023-03-23T03:58:34;98404.91;;;24.07;33.10
16100;BME280;8154;50.830;12.082;2023-03-23T04:01:03;98403.91;;;24.08;33.29
16100;BME280;8154;50.830;12.082;2023-03-23T04:03:29;98410.03;;;24.09;33.10
16100;BME280;8154;50.830;12.082;2023-03-23T04:05:56;98413.31;;;24.11;33.25
16100;BME280;8154;50.830;12.082;2023-03-23T04:08:22;98415.38;;;24.09;33.34
16100;BME280;8154;50.830;12.082;2023-03-23T04:10:49;98424.88;;;24.05;33.34
16100;BME280;8154;50.830;12.082;2023-03-23T04:13:16;98421.16;;;24.06;33.30
16100;BME280;8154;50.830;12.082;2023-03-23T04:15:43;98427.53;;;24.05;33.07
16100;BME280;8154;50.830;12.082;2023-03-23T04:18:09;98424.88;;;24.05;33.36
16100;BME280;8154;50.830;12.082;2023-03-23T04:20:35;98430.38;;;24.10;33.32
16100;BME280;8154;50.830;12.082;2023-03-23T04:23:03;98424.88;;;24.05;33.33
16100;BME280;8154;50.830;12.082;2023-03-23T04:25:29;98438.66;;;24.02;33.05
16100;BME280;8154;50.830;12.082;2023-03-23T04:27:59;98435.56;;;24.05;33.08
16100;BME280;8154;50.830;12.082;2023-03-23T04:30:27;98433.72;;;24.05;33.25
16100;BME280;8154;50.830;12.082;2023-03-23T04:32:55;98442.66;;;24.11;32.88
16100;BME280;8154;50.830;12.082;2023-03-23T04:35:23;98433.03;;;24.10;33.21
16100;BME280;8154;50.830;12.082;2023-03-23T04:37:53;98435.09;;;24.08;33.33
16100;BME280;8154;50.830;12.082;2023-03-23T04:40:20;98431.25;;;24.04;33.40
16100;BME280;8154;50.830;12.082;2023-03-23T04:42:47;98426.50;;;24.06;33.31
16100;BME280;8154;50.830;12.082;2023-03-23T04:45:17;98419.69;;;24.10;33.32
16100;BME280;8154;50.830;12.082;2023-03-23T04:47:51;98421.91;;;24.13;33.21
16100;BME280;8154;50.830;12.082;2023-03-23T04:50:26;98424.34;;;24.14;32.82
16100;BME280;8154;50.830;12.082;2023-03-23T04:52:53;98429.69;;;24.14;33.05
16100;BME280;8154;50.830;12.082;2023-03-23T04:55:24;98439.16;;;24.10;33.19
16100;BME280;8154;50.830;12.082;2023-03-23T04:57:51;98430.22;;;24.05;33.31
16100;BME280;8154;50.830;12.082;2023-03-23T05:00:18;98438.50;;;23.97;33.21
16100;BME280;8154;50.830;12.082;2023-03-23T05:02:46;98434.94;;;24.03;33.53
16100;BME280;8154;50.830;12.082;2023-03-23T05:05:14;98431.59;;;24.07;33.33
16100;BME280;8154;50.830;12.082;2023-03-23T05:07:41;98435.09;;;24.08;33.26
16100;BME280;8154;50.830;12.082;2023-03-23T05:10:09;98441.63;;;24.12;33.00
16100;BME280;8154;50.830;12.082;2023-03-23T05:12:36;98438.59;;;24.08;33.18
16100;BME280;8154;50.830;12.082;2023-03-23T05:15:03;98440.06;;;24.04;33.50
16100;BME280;8154;50.830;12.082;2023-03-23T05:17:29;98441.50;;;24.07;33.10
16100;BME280;8154;50.830;12.082;2023-03-23T05:19:56;98442.66;;;24.11;32.95
16100;BME280;8154;50.830;12.082;2023-03-23T05:22:22;98452.28;;;24.12;33.01
16100;BME280;8154;50.830;12.082;2023-03-23T05:24:49;98454.75;;;24.13;33.04
16100;BME280;8154;50.830;12.082;2023-03-23T05:27:18;98454.75;;;24.13;33.00
16100;BME280;8154;50.830;12.082;2023-03-23T05:29:45;98446.38;;;24.10;33.23
16100;BME280;8154;50.830;12.082;2023-03-23T05:32:15;98456.00;;;24.11;33.27
16100;BME280;8154;50.830;12.082;2023-03-23T05:34:42;98450.44;;;24.12;33.19
16100;BME280;8154;50.830;12.082;2023-03-23T05:37:09;98456.00;;;24.11;33.16
16100;BME280;8154;50.830;12.082;2023-03-23T05:39:36;98457.19;;;24.15;32.90
16100;BME280;8154;50.830;12.082;2023-03-23T05:42:03;98460.06;;;24.13;32.90
16100;BME280;8154;50.830;12.082;2023-03-23T05:44:30;98460.75;;;24.09;33.13
16100;BME280;8154;50.830;12.082;2023-03-23T05:46:57;98468.97;;;24.07;33.19
16100;BME280;8154;50.830;12.082;2023-03-23T05:49:23;98472.19;;;24.16;33.00
16100;BME280;8154;50.830;12.082;2023-03-23T05:51:51;98464.16;;;24.16;33.09
16100;BME280;8154;50.830;12.082;2023-03-23T08:55:22;98563.41;;;24.31;32.82
16100;BME280;8154;50.830;12.082;2023-03-23T08:57:48;98557.31;;;24.24;33.02
16100;BME280;8154;50.830;12.082;2023-03-23T09:00:17;98556.13;;;24.20;32.98
16100;BME280;8154;50.830;12.082;2023-03-23T09:02:48;98547.94;;;24.15;33.21
16100;BME280;8154;50.830;12.082;2023-03-23T09:05:17;98542.78;;;24.20;32.77
16100;BME280;8154;50.830;12.082;2023-03-23T09:07:46;98544.47;;;24.14;33.17
16100;BME280;8154;50.830;12.082;2023-03-23T09:10:14;98537.38;;;24.08;33.05
16100;BME280;8154;50.830;12.082;2023-03-23T09:12:41;98542.84;;;24.13;33.31
16100;BME280;8154;50.830;12.082;2023-03-23T09:15:11;98541.72;;;24.21;33.07
16100;BME280;8154;50.830;12.082;2023-03-23T09:17:40;98543.31;;;24.28;33.06
16100;BME280;8154;50.830;12.082;2023-03-23T09:20:07;98552.28;;;24.34;32.61
16100;BME280;8154;50.830;12.082;2023-03-23T09:22:43;98552.88;;;24.36;32.92
16100;BME280;8154;50.830;12.082;2023-03-23T09:25:11;98542.97;;;24.37;33.00
16100;BME280;8154;50.830;12.082;2023-03-23T09:27:39;98553.88;;;24.35;32.53
16100;BME280;8154;50.830;12.082;2023-03-23T09:30:08;98547.38;;;24.31;33.10
16100;BME280;8154;50.830;12.082;2023-03-23T09:32:38;98563.78;;;24.35;32.60
16100;BME280;8154;50.830;12.082;2023-03-23T09:35:07;98570.28;;;24.39;32.85
16100;BME280;8154;50.830;12.082;2023-03-23T09:37:40;98581.34;;;24.42;32.67
16100;BME280;8154;50.830;12.082;2023-03-23T09:40:11;98570.69;;;24.42;32.60
16100;BME280;8154;50.830;12.082;2023-03-23T09:43:05;98578.53;;;24.37;32.68
16100;BME280;8154;50.830;12.082;2023-03-23T09:45:43;98580.69;;;24.28;33.21
16100;BME280;8154;50.830;12.082;2023-03-23T09:50:47;98573.19;;;24.37;32.65
16100;BME280;8154;50.830;12.082;2023-03-23T09:53:23;98587.16;;;24.39;33.03
16100;BME280;8154;50.830;12.082;2023-03-23T09:55:52;98582.97;;;24.43;32.92
16100;BME280;8154;50.830;12.082;2023-03-23T09:58:33;98580.38;;;24.37;32.98
16100;BME280;8154;50.830;12.082;2023-03-23T10:01:07;98568.97;;;24.29;32.92
16100;BME280;8154;50.830;12.082;2023-03-23T10:03:41;98573.19;;;24.37;32.85
16100;BME280;8154;50.830;12.082;2023-03-23T10:06:15;98580.31;;;24.43;32.91
16100;BME280;8154;50.830;12.082;2023-03-23T10:08:48;98566.50;;;24.46;32.51
16100;BME280;8154;50.830;12.082;2023-03-23T10:16:42;98578.41;;;24.50;32.49
16100;BME280;8154;50.830;12.082;2023-03-23T10:19:20;98585.81;;;24.48;32.62
16100;BME280;8154;50.830;12.082;2023-03-23T10:21:56;98581.63;;;24.52;32.40
16100;BME280;8154;50.830;12.082;2023-03-23T10:24:33;98572.28;;;24.43;32.70
16100;BME280;8154;50.830;12.082;2023-03-23T10:27:26;98578.47;;;24.44;32.80
16100;BME280;8154;50.830;12.082;2023-03-23T10:30:03;98571.84;;;24.46;32.71
16100;BME280;8154;50.830;12.082;2023-03-23T10:33:08;98570.69;;;24.42;32.67
16100;BME280;8154;50.830;12.082;2023-03-23T10:35:41;98581.88;;;24.33;33.09
16100;BME280;8154;50.830;12.082;2023-03-23T10:38:16;98566.69;;;24.33;32.95
16100;BME280;8154;50.830;12.082;2023-03-23T10:40:50;98567.19;;;24.42;32.62
16100;BME280;8154;50.830;12.082;2023-03-23T10:43:18;98564.50;;;24.42;32.73
16100;BME280;8154;50.830;12.082;2023-03-23T10:45:50;98578.47;;;24.44;32.58
16100;BME280;8154;50.830;12.082;2023-03-23T10:48:25;98575.34;;;24.47;32.42
16100;BME280;8154;50.830;12.082;2023-03-23T10:50:55;98571.84;;;24.46;32.72
16100;BME280;8154;50.830;12.082;2023-03-23T10:53:32;98574.97;;;24.43;32.78
16100;BME280;8154;50.830;12.082;2023-03-23T10:56:00;98573.84;;;24.33;33.08
16100;BME280;8154;50.830;12.082;2023-03-23T10:58:29;98573.78;;;24.39;32.94
16100;BME280;8154;50.830;12.082;2023-03-23T11:00:58;98570.69;;;24.42;32.71
16100;BME280;8154;50.830;12.082;2023-03-23T11:06:00;98577.19;;;24.28;32.75
16100;BME280;8154;50.830;12.082;2023-03-23T11:08:35;98573.63;;;24.34;33.14
16100;BME280;8154;50.830;12.082;2023-03-23T11:11:10;98583.44;;;24.40;32.85
16100;BME280;8154;50.830;12.082;2023-03-23T11:13:40;98585.66;;;24.43;32.92
16100;BME280;8154;50.830;12.082;2023-03-23T11:16:08;98578.84;;;24.47;32.76
16100;BME280;8154;50.830;12.082;2023-03-23T11:18:41;98584.09;;;24.36;32.63
16100;BME280;8154;50.830;12.082;2023-03-23T11:21:12;98582.09;;;24.31;33.21
16100;BME280;8154;50.830;12.082;2023-03-23T11:23:41;98585.72;;;24.37;32.76
16100;BME280;8154;50.830;12.082;2023-03-23T11:26:30;98586.69;;;24.42;32.57
16100;BME280;8154;50.830;12.082;2023-03-23T11:29:14;98591.66;;;24.39;32.77
16100;BME280;8154;50.830;12.082;2023-03-23T11:31:47;98584.53;;;24.33;33.01
16100;BME280;8154;50.830;12.082;2023-03-23T11:39:31;98591.00;;;24.43;32.72
16100;BME280;8154;50.830;12.082;2023-03-23T11:42:00;98607.47;;;24.40;32.94
16100;BME280;8154;50.830;12.082;2023-03-23T11:44:40;98590.53;;;24.28;33.29
16100;BME280;8154;50.830;12.082;2023-03-23T11:47:42;98583.94;;;24.30;32.96
16100;BME280;8154;50.830;12.082;2023-03-23T11:50:24;98593.50;;;24.38;32.76
16100;BME280;8154;50.830;12.082;2023-03-23T11:53:12;98587.59;;;24.36;32.90
16100;BME280;8154;50.830;12.082;2023-03-23T13:05:41;98582.41;;;24.41;32.56
16100;BME280;8154;50.830;12.082;2023-03-23T13:08:21;98582.09;;;24.31;33.00
16100;BME280;8154;50.830;12.082;2023-03-23T13:10:51;98578.91;;;24.22;33.20
16100;BME280;8154;50.830;12.082;2023-03-23T13:13:22;98583.81;;;24.25;33.13
16100;BME280;8154;50.830;12.082;2023-03-23T13:15:59;98580.59;;;24.35;32.85
16100;BME280;8154;50.830;12.082;2023-03-23T13:21:11;98580.97;;;24.20;33.19
16100;BME280;8154;50.830;12.082;2023-03-23T13:23:45;98577.34;;;24.33;33.05
16100;BME280;8154;50.830;12.082;2023-03-23T13:26:21;98582.25;;;24.36;33.09
16100;BME280;8154;50.830;12.082;2023-03-23T13:33:53;98580.03;;;24.33;32.86
16100;BME280;8154;50.830;12.082;2023-03-23T13:36:30;98578.31;;;24.20;33.18
16100;BME280;8154;50.830;12.082;2023-03-23T13:38:59;98573.25;;;24.30;33.00
16100;BME280;8154;50.830;12.082;2023-03-23T13:41:26;98565.78;;;24.39;32.83
16100;BME280;8154;50.830;12.082;2023-03-23T13:44:05;98565.63;;;24.34;32.74
16100;BME280;8154;50.830;12.082;2023-03-23T13:46:32;98567.56;;;24.27;33.17
16100;BME280;8154;50.830;12.082;2023-03-23T13:49:17;98566.28;;;24.29;33.10
16100;BME280;8154;50.830;12.082;2023-03-23T14:58:08;98585.31;;;24.40;32.86
16100;BME280;8154;50.830;12.082;2023-03-23T15:00:45;98585.31;;;24.40;32.87
16100;BME280;8154;50.830;12.082;2023-03-23T15:03:16;98594.16;;;24.33;32.64
16100;BME280;8154;50.830;12.082;2023-03-23T15:05:53;98603.69;;;24.29;32.96
16100;BME280;8154;50.830;12.082;2023-03-23T15:08:32;98598.94;;;24.32;33.13
16100;BME280;8154;50.830;12.082;2023-03-23T15:13:25;98610.63;;;24.30;33.04
16100;BME280;8154;50.830;12.082;2023-03-23T15:16:04;98615.63;;;24.27;32.86
16100;BME280;8154;50.830;12.082;2023-03-23T15:18:36;98617.25;;;24.28;33.14
16100;BME280;8154;50.830;12.082;2023-03-23T15:26:53;98631.13;;;24.37;32.95
16100;BME280;8154;50.830;12.082;2023-03-23T15:29:21;98634.97;;;24.22;32.85
16100;BME280;8154;50.830;12.082;2023-03-23T15:31:54;98623.97;;;24.12;33.33
16100;BME280;8154;50.830;12.082;2023-03-23T15:34:33;98612.34;;;24.25;33.11
16100;BME280;8154;50.830;12.082;2023-03-23T15:37:27;98618.06;;;24.28;33.04
16100;BME280;8154;50.830;12.082;2023-03-23T15:39:55;98618.28;;;24.27;33.23
16100;BME280;8154;50.830;12.082;2023-03-23T15:45:21;98601.84;;;24.30;33.07
16100;BME280;8154;50.830;12.082;2023-03-23T15:47:52;98598.94;;;24.32;32.96
16100;BME280;8154;50.830;12.082;2023-03-23T15:52:46;98600.78;;;24.31;33.05
16100;BME280;8154;50.830;12.082;2023-03-23T15:55:39;98605.75;;;24.27;32.85
16100;BME280;8154;50.830;12.082;2023-03-23T15:58:11;98593.00;;;24.29;32.99
16100;BME280;8154;50.830;12.082;2023-03-23T16:00:37;98588.47;;;24.30;32.93
16100;BME280;8154;50.830;12.082;2023-03-23T16:03:07;98581.94;;;24.26;32.86
16100;BME280;8154;50.830;12.082;2023-03-23T16:05:34;98573.47;;;24.29;33.10
16100;BME280;8154;50.830;12.082;2023-03-23T16:08:00;98582.97;;;24.25;32.91
16100;BME280;8154;50.830;12.082;2023-03-23T16:10:28;98580.38;;;24.18;32.90
16100;BME280;8154;50.830;12.082;2023-03-23T16:12:55;98573.56;;;24.22;32.97
16100;BME280;8154;50.830;12.082;2023-03-23T16:15:22;98579.47;;;24.24;32.88
16100;BME280;8154;50.830;12.082;2023-03-23T16:17:48;98569.91;;;24.17;33.12
16100;BME280;8154;50.830;12.082;2023-03-23T16:20:20;98588.22;;;24.13;32.99
16100;BME280;8154;50.830;12.082;2023-03-23T16:22:47;98596.63;;;24.17;33.15
16100;BME280;8154;50.830;12.082;2023-03-23T16:25:14;98603.13;;;24.21;32.81
16100;BME280;8154;50.830;12.082;2023-03-23T16:27:41;98612.78;;;24.22;33.25
16100;BME280;8154;50.830;12.082;2023-03-23T16:30:16;98599.44;;;24.22;32.98
16100;BME280;8154;50.830;12.082;2023-03-23T16:32:43;98612.72;;;24.28;32.74
16100;BME280;8154;50.830;12.082;2023-03-23T16:35:10;98621.31;;;24.30;32.98
16100;BME280;8154;50.830;12.082;2023-03-23T16:37:36;98624.06;;;24.24;32.78
16100;BME280;8154;50.830;12.082;2023-03-23T16:40:03;98630.66;;;24.21;33.17
16100;BME280;8154;50.830;12.082;2023-03-23T16:42:30;98647.34;;;24.17;33.24
16100;BME280;8154;50.830;12.082;2023-03-23T16:44:57;98649.78;;;24.18;33.00
16100;BME280;8154;50.830;12.082;2023-03-23T16:47:23;98640.69;;;24.26;33.12
16100;BME280;8154;50.830;12.082;2023-03-23T16:49:51;98642.09;;;24.28;33.04
16100;BME280;8154;50.830;12.082;2023-03-23T16:52:18;98647.66;;;24.27;33.07
16100;BME280;8154;50.830;12.082;2023-03-23T16:54:44;98648.47;;;24.27;32.90
16100;BME280;8154;50.830;12.082;2023-03-23T16:57:13;98641.50;;;24.26;33.00
16100;BME280;8154;50.830;12.082;2023-03-23T16:59:40;98637.13;;;24.32;32.89
16100;BME280;8154;50.830;12.082;2023-03-23T17:02:08;98638.16;;;24.31;33.01
16100;BME280;8154;50.830;12.082;2023-03-23T17:04:34;98635.16;;;24.21;32.97
16100;BME280;8154;50.830;12.082;2023-03-23T17:07:00;98636.66;;;24.17;33.35
16100;BME280;8154;50.830;12.082;2023-03-23T17:09:27;98643.56;;;24.24;32.96
16100;BME280;8154;50.830;12.082;2023-03-23T17:11:53;98639.66;;;24.27;32.82
16100;BME280;8154;50.830;12.082;2023-03-23T17:14:20;98640.22;;;24.29;32.91
16100;BME280;8154;50.830;12.082;2023-03-23T17:16:46;98634.44;;;24.32;32.98
16100;BME280;8154;50.830;12.082;2023-03-23T17:19:13;98632.59;;;24.33;32.78
16100;BME280;8154;50.830;12.082;2023-03-23T17:21:40;98635.50;;;24.31;33.03
16100;BME280;8154;50.830;12.082;2023-03-23T17:24:08;98628.22;;;24.20;32.82
16100;BME280;8154;50.830;12.082;2023-03-23T17:26:34;98631.91;;;24.19;32.94
16100;BME280;8154;50.830;12.082;2023-03-23T17:29:03;98626.97;;;24.22;33.09
16100;BME280;8154;50.830;12.082;2023-03-23T17:31:32;98623.84;;;24.25;33.05
16100;BME280;8154;50.830;12.082;2023-03-23T17:33:58;98632.88;;;24.24;33.01
16100;BME280;8154;50.830;12.082;2023-03-23T17:36:25;98634.75;;;24.24;32.66
16100;BME280;8154;50.830;12.082;2023-03-23T17:38:51;98632.44;;;24.27;32.61
16100;BME280;8154;50.830;12.082;2023-03-23T17:41:18;98635.13;;;24.27;33.12
16100;BME280;8154;50.830;12.082;2023-03-23T17:43:46;98623.31;;;24.17;33.10
16100;BME280;8154;50.830;12.082;2023-03-23T17:46:13;98622.13;;;24.13;33.18
16100;BME280;8154;50.830;12.082;2023-03-23T17:48:39;98618.56;;;24.19;32.95
16100;BME280;8154;50.830;12.082;2023-03-23T17:51:06;98630.44;;;24.23;32.93
16100;BME280;8154;50.830;12.082;2023-03-23T17:53:33;98627.97;;;24.21;33.08
16100;BME280;8154;50.830;12.082;2023-03-23T17:56:04;98625.31;;;24.21;33.22
16100;BME280;8154;50.830;12.082;2023-03-23T18:59:47;98623.97;;;24.12;33.20
16100;BME280;8154;50.830;12.082;2023-03-23T19:02:14;98617.38;;;24.15;33.12
16100;BME280;8154;50.830;12.082;2023-03-23T19:04:45;98623.31;;;24.17;32.84
16100;BME280;8154;50.830;12.082;2023-03-23T19:07:12;98618.56;;;24.19;32.94
16100;BME280;8154;50.830;12.082;2023-03-23T19:09:39;98623.47;;;24.22;32.79
16100;BME280;8154;50.830;12.082;2023-03-23T19:12:11;98619.75;;;24.23;32.97
16100;BME280;8154;50.830;12.082;2023-03-23T19:14:39;98616.91;;;24.18;32.85
16100;BME280;8154;50.830;12.082;2023-03-23T19:17:07;98620.19;;;24.20;33.17
16100;BME280;8154;50.830;12.082;2023-03-23T19:19:34;98625.47;;;24.26;32.86
16100;BME280;8154;50.830;12.082;2023-03-23T19:22:00;98619.91;;;24.28;33.03
16100;BME280;8154;50.830;12.082;2023-03-23T19:24:27;98632.00;;;24.30;33.00
16100;BME280;8154;50.830;12.082;2023-03-23T19:26:56;98620.75;;;24.28;32.96
16100;BME280;8154;50.830;12.082;2023-03-23T19:29:22;98616.06;;;24.24;32.78
16100;BME280;8154;50.830;12.082;2023-03-23T19:31:48;98621.97;;;24.26;33.12
16100;BME280;8154;50.830;12.082;2023-03-23T19:34:15;98620.41;;;24.18;32.86
16100;BME280;8154;50.830;12.082;2023-03-23T19:36:41;98617.00;;;24.11;33.27
16100;BME280;8154;50.830;12.082;2023-03-23T19:39:10;98615.69;;;24.20;32.81
16100;BME280;8154;50.830;12.082;2023-03-23T19:41:37;98615.47;;;24.22;32.77
16100;BME280;8154;50.830;12.082;2023-03-23T19:44:04;98608.06;;;24.24;32.79
16100;BME280;8154;50.830;12.082;2023-03-23T19:46:31;98613.53;;;24.29;32.97
16100;BME280;8154;50.830;12.082;2023-03-23T19:48:58;98610.84;;;24.29;33.01
16100;BME280;8154;50.830;12.082;2023-03-23T19:51:24;98616.81;;;24.31;32.93
16100;BME280;8154;50.830;12.082;2023-03-23T19:53:50;98615.75;;;24.32;32.73
16100;BME280;8154;50.830;12.082;2023-03-23T19:56:19;98618.28;;;24.27;32.87
16100;BME280;8154;50.830;12.082;2023-03-23T19:58:48;98624.94;;;24.18;32.78
16100;BME280;8154;50.830;12.082;2023-03-23T20:35:04;98641.06;;;24.29;32.85
16100;BME280;8154;50.830;12.082;2023-03-23T20:37:35;98638.63;;;24.28;32.69
16100;BME280;8154;50.830;12.082;2023-03-23T20:40:08;98630.88;;;24.20;33.10
16100;BME280;8154;50.830;12.082;2023-03-23T20:42:39;98632.94;;;24.18;33.30
16100;BME280;8154;50.830;12.082;2023-03-23T20:45:09;98631.03;;;24.25;32.96
16100;BME280;8154;50.830;12.082;2023-03-23T20:47:37;98633.28;;;24.28;32.69
16100;BME280;8154;50.830;12.082;2023-03-23T20:50:04;98631.44;;;24.28;32.83
16100;BME280;8154;50.830;12.082;2023-03-23T20:52:31;98626.31;;;24.27;32.68
16100;BME280;8154;50.830;12.082;2023-03-23T20:54:57;98625.47;;;24.26;32.94
16100;BME280;8154;50.830;12.082;2023-03-23T20:57:23;98629.56;;;24.29;32.86
16100;BME280;8154;50.830;12.082;2023-03-23T20:59:50;98626.97;;;24.22;32.94
16100;BME280;8154;50.830;12.082;2023-03-23T21:02:17;98623.47;;;24.22;33.06
16100;BME280;8154;50.830;12.082;2023-03-23T21:04:44;98628.75;;;24.28;32.85
16100;BME280;8154;50.830;12.082;2023-03-23T21:07:11;98625.88;;;24.30;32.85
16100;BME280;8154;50.830;12.082;2023-03-23T21:09:41;98625.88;;;24.30;33.02
16100;BME280;8154;50.830;12.082;2023-03-23T21:12:08;98628.53;;;24.30;32.92
16100;BME280;8154;50.830;12.082;2023-03-23T21:14:36;98624.31;;;24.22;32.89
16100;BME280;8154;50.830;12.082;2023-03-23T21:17:03;98617.03;;;24.29;32.78
16100;BME280;8154;50.830;12.082;2023-03-23T21:19:30;98615.91;;;24.19;32.82
16100;BME280;8154;50.830;12.082;2023-03-23T21:21:56;98610.78;;;24.17;32.74
16100;BME280;8154;50.830;12.082;2023-03-23T21:24:27;98615.25;;;24.23;32.99
16100;BME280;8154;50.830;12.082;2023-03-23T21:26:56;98607.84;;;24.25;33.14
16100;BME280;8154;50.830;12.082;2023-03-23T21:29:22;98609.25;;;24.28;32.70
16100;BME280;8154;50.830;12.082;2023-03-23T21:31:50;98594.03;;;24.28;33.05
16100;BME280;8154;50.830;12.082;2023-03-23T21:34:16;98595.56;;;24.18;33.20
16100;BME280;8154;50.830;12.082;2023-03-23T21:36:42;98586.38;;;24.14;33.11
16100;BME280;8154;50.830;12.082;2023-03-23T21:39:08;98574.59;;;24.21;32.80
16100;BME280;8154;50.830;12.082;2023-03-23T21:41:36;98566.34;;;24.23;33.11
16100;BME280;8154;50.830;12.082;2023-03-23T21:44:03;98574.38;;;24.23;33.06
16100;BME280;8154;50.830;12.082;2023-03-23T21:46:30;98574.16;;;24.24;32.62
16100;BME280;8154;50.830;12.082;2023-03-23T21:48:56;98571.91;;;24.21;32.80
16100;BME280;8154;50.830;12.082;2023-03-23T21:51:26;98569.47;;;24.20;32.78
16100;BME280;8154;50.830;12.082;2023-03-23T21:53:53;98570.69;;;24.24;32.90
16100;BME280;8154;50.830;12.082;2023-03-23T21:56:21;98576.16;;;24.29;32.97
16100;BME280;8154;50.830;12.082;2023-03-23T21:58:48;98568.75;;;24.31;32.94
16100;BME280;8154;50.830;12.082;2023-03-23T22:01:16;98566.91;;;24.32;32.58
16100;BME280;8154;50.830;12.082;2023-03-23T22:03:44;98574.06;;;24.31;32.81
16100;BME280;8154;50.830;12.082;2023-03-23T22:06:14;98576.16;;;24.29;32.95
16100;BME280;8154;50.830;12.082;2023-03-23T22:08:42;98569.03;;;24.23;32.98
16100;BME280;8154;50.830;12.082;2023-03-23T22:11:15;98569.91;;;24.17;32.93
16100;BME280;8154;50.830;12.082;2023-03-23T22:13:41;98562.28;;;24.20;33.06
16100;BME280;8154;50.830;12.082;2023-03-23T22:16:11;98568.34;;;24.27;33.05
16100;BME280;8154;50.830;12.082;2023-03-23T22:18:39;98566.97;;;24.25;32.80
16100;BME280;8154;50.830;12.082;2023-03-23T22:21:08;98567.34;;;24.28;32.95
16100;BME280;8154;50.830;12.082;2023-03-23T22:23:35;98560.63;;;24.19;33.15
16100;BME280;8154;50.830;12.082;2023-03-23T22:26:02;98545.88;;;24.17;33.15
16100;BME280;8154;50.830;12.082;2023-03-23T22:28:29;98553.22;;;24.21;32.76
16100;BME280;8154;50.830;12.082;2023-03-23T22:31:03;98548.28;;;24.25;32.93
16100;BME280;8154;50.830;12.082;2023-03-23T22:33:30;98541.44;;;24.29;32.73
16100;BME280;8154;50.830;12.082;2023-03-23T22:35:56;98543.31;;;24.28;32.68
16100;BME280;8154;50.830;12.082;2023-03-23T22:38:24;98539.22;;;24.26;33.00
16100;BME280;8154;50.830;12.082;2023-03-23T22:40:57;98530.47;;;24.19;33.04
16100;BME280;8154;50.830;12.082;2023-03-23T22:43:23;98522.84;;;24.22;33.01
16100;BME280;8154;50.830;12.082;2023-03-23T22:45:50;98528.09;;;24.29;32.99
16100;BME280;8154;50.830;12.082;2023-03-23T22:48:18;98524.41;;;24.30;32.79
16100;BME280;8154;50.830;12.082;2023-03-23T22:50:45;98511.63;;;24.32;32.70
16100;BME280;8154;50.830;12.082;2023-03-23T22:53:13;98508.59;;;24.28;32.99
16100;BME280;8154;50.830;12.082;2023-03-23T22:55:45;98503.31;;;24.22;32.82
16100;BME280;8154;50.830;12.082;2023-03-23T22:58:12;98496.78;;;24.18;32.97
16100;BME280;8154;50.830;12.082;2023-03-23T23:00:41;98496.50;;;24.26;33.04
16100;BME280;8154;50.830;12.082;2023-03-23T23:49:10;98462.16;;;24.29;33.04
16100;BME280;8154;50.830;12.082;2023-03-23T23:51:37;98453.09;;;24.30;32.73
16100;BME280;8154;50.830;12.082;2023-03-23T23:54:03;98448.88;;;24.23;32.76
16100;BME280;8154;50.830;12.082;2023-03-23T23:56:29;98452.44;;;24.17;32.92
16100;BME280;8154;50.830;12.082;2023-03-23T23:58:56;98451.53;;;24.23;33.11
